sensor_id;sensor_type;location;lat;lon;timestamp;temperature;humidity
10692;DHT22;5396;50.950;6.988;2022-12-10T00:00:15;0.00;99.90
10692;DHT22;5396;50.950;6.988;2022-12-10T00:02:41;0.00;99.90
10692;DHT22;5396;50.950;6.988;2022-12-10T00:05:07;-0.10;99.90
10692;DHT22;5396;50.950;6.988;2022-12-10T00:07:33;-0.10;99.90
10692;DHT22;5396;50.950;6.988;2022-12-10T00:09:58;-0.10;99.90
10692;DHT22;5396;50.950;6.988;2022-12-10T00:12:24;-0.10;99.90
10692;DHT22;5396;50.950;6.988;2022-12-10T00:14:50;-0.10;99.90
10692;DHT22;5396;50.950;6.988;2022-12-10T00:17:15;-0.20;99.90
10692;DHT22;5396;50.950;6.988;2022-12-10T00:19:41;-0.30;99.90
10692;DHT22;5396;50.950;6.988;2022-12-10T00:22:06;-0.40;99.90
10692;DHT22;5396;50.950;6.988;2022-12-10T00:24:32;-0.50;99.90
10692;DHT22;5396;50.950;6.988;2022-12-10T00:26:58;-0.60;99.90
10692;DHT22;5396;50.950;6.988;2022-12-10T00:29:23;-0.70;99.90
10692;DHT22;5396;50.950;6.988;2022-12-10T00:31:49;-0.70;99.90
10692;DHT22;5396;50.950;6.988;2022-12-10T00:34:14;-0.80;99.90
10692;DHT22;5396;50.950;6.988;2022-12-10T00:36:46;-0.80;99.90
10692;DHT22;5396;50.950;6.988;2022-12-10T00:39:14;-0.90;99.90
10692;DHT22;5396;50.950;6.988;2022-12-10T00:41:39;-0.90;99.90
10692;DHT22;5396;50.950;6.988;2022-12-10T00:44:05;-0.80;99.90
10692;DHT22;5396;50.950;6.988;2022-12-10T00:46:31;-0.90;99.90
10692;DHT22;5396;50.950;6.988;2022-12-10T00:48:58;-1.00;99.90
10692;DHT22;5396;50.950;6.988;2022-12-10T00:51:25;-1.10;99.90
10692;DHT22;5396;50.950;6.988;2022-12-10T00:53:53;-1.10;99.90
10692;DHT22;5396;50.950;6.988;2022-12-10T00:56:21;-1.10;99.90
10692;DHT22;5396;50.950;6.988;2022-12-10T00:58:47;-1.30;99.90
10692;DHT22;5396;50.950;6.988;2022-12-10T01:03:43;-1.40;99.90
10692;DHT22;5396;50.950;6.988;2022-12-10T01:06:19;-1.40;99.90
10692;DHT22;5396;50.950;6.988;2022-12-10T01:08:46;-1.50;99.90
10692;DHT22;5396;50.950;6.988;2022-12-10T01:11:14;-1.50;99.90
10692;DHT22;5396;50.950;6.988;2022-12-10T01:13:41;-1.50;99.90
10692;DHT22;5396;50.950;6.988;2022-12-10T01:16:08;-1.50;99.90
10692;DHT22;5396;50.950;6.988;2022-12-10T01:18:34;-1.60;99.90
10692;DHT22;5396;50.950;6.988;2022-12-10T01:21:06;-1.60;99.90
10692;DHT22;5396;50.950;6.988;2022-12-10T01:23:33;-1.60;99.90
10692;DHT22;5396;50.950;6.988;2022-12-10T01:26:02;-1.60;99.90
10692;DHT22;5396;50.950;6.988;2022-12-10T01:28:29;-1.70;99.90
10692;DHT22;5396;50.950;6.988;2022-12-10T01:30:55;-1.80;99.90
10692;DHT22;5396;50.950;6.988;2022-12-10T01:33:24;-1.80;99.90
10692;DHT22;5396;50.950;6.988;2022-12-10T01:35:49;-1.80;99.90
10692;DHT22;5396;50.950;6.988;2022-12-10T01:38:15;-1.80;99.90
10692;DHT22;5396;50.950;6.988;2022-12-10T01:40:40;-1.70;99.90
10692;DHT22;5396;50.950;6.988;2022-12-10T01:43:14;-1.60;99.90
10692;DHT22;5396;50.950;6.988;2022-12-10T01:45:40;-1.60;99.90
10692;DHT22;5396;50.950;6.988;2022-12-10T01:48:06;-1.60;99.90
10692;DHT22;5396;50.950;6.988;2022-12-10T01:50:32;-1.60;99.90
10692;DHT22;5396;50.950;6.988;2022-12-10T01:52:57;-1.60;99.90
10692;DHT22;5396;50.950;6.988;2022-12-10T01:55:47;-1.50;99.90
10692;DHT22;5396;50.950;6.988;2022-12-10T01:58:18;-1.50;99.90
10692;DHT22;5396;50.950;6.988;2022-12-10T02:03:47;-1.50;99.90
10692;DHT22;5396;50.950;6.988;2022-12-10T02:09:17;-1.50;99.90
10692;DHT22;5396;50.950;6.988;2022-12-10T02:16:57;-1.70;99.90
10692;DHT22;5396;50.950;6.988;2022-12-10T02:19:56;-1.70;99.90
10692;DHT22;5396;50.950;6.988;2022-12-10T02:22:26;-1.80;99.90
10692;DHT22;5396;50.950;6.988;2022-12-10T02:24:54;-1.80;99.90
10692;DHT22;5396;50.950;6.988;2022-12-10T02:27:46;-1.80;99.90
10692;DHT22;5396;50.950;6.988;2022-12-10T02:30:13;-1.80;99.90
10692;DHT22;5396;50.950;6.988;2022-12-10T02:32:41;-1.80;99.90
10692;DHT22;5396;50.950;6.988;2022-12-10T02:35:19;-1.80;99.90
10692;DHT22;5396;50.950;6.988;2022-12-10T02:37:53;-1.80;99.90
10692;DHT22;5396;50.950;6.988;2022-12-10T02:40:24;-1.80;99.90
10692;DHT22;5396;50.950;6.988;2022-12-10T02:42:51;-1.70;99.90
10692;DHT22;5396;50.950;6.988;2022-12-10T02:45:20;-1.70;99.90
10692;DHT22;5396;50.950;6.988;2022-12-10T02:47:47;-1.70;99.90
10692;DHT22;5396;50.950;6.988;2022-12-10T02:50:15;-1.70;99.90
10692;DHT22;5396;50.950;6.988;2022-12-10T02:52:41;-1.70;99.90
10692;DHT22;5396;50.950;6.988;2022-12-10T02:55:11;-1.70;99.90
10692;DHT22;5396;50.950;6.988;2022-12-10T02:57:41;-1.70;99.90
10692;DHT22;5396;50.950;6.988;2022-12-10T03:00:15;-1.70;99.90
10692;DHT22;5396;50.950;6.988;2022-12-10T03:05:55;-1.80;99.90
10692;DHT22;5396;50.950;6.988;2022-12-10T03:11:16;-1.70;99.90
10692;DHT22;5396;50.950;6.988;2022-12-10T03:16:29;-1.60;99.90
10692;DHT22;5396;50.950;6.988;2022-12-10T03:18:59;-1.60;99.90
10692;DHT22;5396;50.950;6.988;2022-12-10T03:21:26;-1.50;99.90
10692;DHT22;5396;50.950;6.988;2022-12-10T03:23:54;-1.50;99.90
10692;DHT22;5396;50.950;6.988;2022-12-10T03:26:21;-1.50;99.90
10692;DHT22;5396;50.950;6.988;2022-12-10T03:29:01;-1.40;99.90
10692;DHT22;5396;50.950;6.988;2022-12-10T03:31:29;-1.40;99.90
10692;DHT22;5396;50.950;6.988;2022-12-10T03:33:55;-1.30;99.90
10692;DHT22;5396;50.950;6.988;2022-12-10T03:36:22;-1.30;99.90
10692;DHT22;5396;50.950;6.988;2022-12-10T03:38:48;-1.30;99.90
10692;DHT22;5396;50.950;6.988;2022-12-10T03:41:14;-1.20;99.90
10692;DHT22;5396;50.950;6.988;2022-12-10T03:43:54;-1.20;99.90
10692;DHT22;5396;50.950;6.988;2022-12-10T03:46:21;-1.10;99.90
10692;DHT22;5396;50.950;6.988;2022-12-10T03:48:47;-1.10;99.90
10692;DHT22;5396;50.950;6.988;2022-12-10T03:51:13;-1.10;99.90
10692;DHT22;5396;50.950;6.988;2022-12-10T03:53:38;-1.10;99.90
10692;DHT22;5396;50.950;6.988;2022-12-10T03:56:04;-1.00;99.90
10692;DHT22;5396;50.950;6.988;2022-12-10T03:58:29;-1.00;99.90
10692;DHT22;5396;50.950;6.988;2022-12-10T04:00:55;-1.00;99.90
10692;DHT22;5396;50.950;6.988;2022-12-10T04:03:20;-1.00;99.90
10692;DHT22;5396;50.950;6.988;2022-12-10T04:05:46;-1.00;99.90
10692;DHT22;5396;50.950;6.988;2022-12-10T04:08:11;-1.00;99.90
10692;DHT22;5396;50.950;6.988;2022-12-10T04:10:38;-0.90;99.90
10692;DHT22;5396;50.950;6.988;2022-12-10T04:13:04;-0.90;99.90
10692;DHT22;5396;50.950;6.988;2022-12-10T04:15:48;-0.90;99.90
10692;DHT22;5396;50.950;6.988;2022-12-10T04:18:32;-0.90;99.90
10692;DHT22;5396;50.950;6.988;2022-12-10T04:20:58;-0.90;99.90
10692;DHT22;5396;50.950;6.988;2022-12-10T04:23:42;-0.90;99.90
10692;DHT22;5396;50.950;6.988;2022-12-10T04:26:26;-0.90;99.90
10692;DHT22;5396;50.950;6.988;2022-12-10T04:29:10;-0.90;99.90
10692;DHT22;5396;50.950;6.988;2022-12-10T04:31:36;-0.90;99.90
10692;DHT22;5396;50.950;6.988;2022-12-10T04:34:02;-0.90;99.90
10692;DHT22;5396;50.950;6.988;2022-12-10T04:36:27;-0.90;99.90
10692;DHT22;5396;50.950;6.988;2022-12-10T04:38:53;-0.90;99.90
10692;DHT22;5396;50.950;6.988;2022-12-10T04:41:18;-0.80;99.90
10692;DHT22;5396;50.950;6.988;2022-12-10T04:43:44;-0.80;99.90
10692;DHT22;5396;50.950;6.988;2022-12-10T04:46:11;-0.80;99.90
10692;DHT22;5396;50.950;6.988;2022-12-10T04:48:36;-0.80;99.90
10692;DHT22;5396;50.950;6.988;2022-12-10T04:51:02;-0.80;99.90
10692;DHT22;5396;50.950;6.988;2022-12-10T04:53:28;-0.80;99.90
10692;DHT22;5396;50.950;6.988;2022-12-10T04:55:53;-0.80;99.90
10692;DHT22;5396;50.950;6.988;2022-12-10T04:58:19;-0.80;99.90
10692;DHT22;5396;50.950;6.988;2022-12-10T05:00:45;-0.80;99.90
10692;DHT22;5396;50.950;6.988;2022-12-10T05:03:10;-0.70;99.90
10692;DHT22;5396;50.950;6.988;2022-12-10T05:05:36;-0.80;99.90
10692;DHT22;5396;50.950;6.988;2022-12-10T05:08:02;-0.80;99.90
10692;DHT22;5396;50.950;6.988;2022-12-10T05:10:30;-0.80;99.90
10692;DHT22;5396;50.950;6.988;2022-12-10T05:12:59;-0.80;99.90
10692;DHT22;5396;50.950;6.988;2022-12-10T05:15:24;-0.80;99.90
10692;DHT22;5396;50.950;6.988;2022-12-10T05:17:50;-0.80;99.90
10692;DHT22;5396;50.950;6.988;2022-12-10T05:20:15;-0.70;99.90
10692;DHT22;5396;50.950;6.988;2022-12-10T05:22:41;-0.70;99.90
10692;DHT22;5396;50.950;6.988;2022-12-10T05:25:25;-0.70;99.90
10692;DHT22;5396;50.950;6.988;2022-12-10T05:27:51;-0.70;99.90
10692;DHT22;5396;50.950;6.988;2022-12-10T05:30:16;-0.70;99.90
10692;DHT22;5396;50.950;6.988;2022-12-10T05:32:42;-0.70;99.90
10692;DHT22;5396;50.950;6.988;2022-12-10T05:35:08;-0.70;99.90
10692;DHT22;5396;50.950;6.988;2022-12-10T05:37:33;-0.70;99.90
10692;DHT22;5396;50.950;6.988;2022-12-10T05:39:59;-0.70;99.90
10692;DHT22;5396;50.950;6.988;2022-12-10T05:42:24;-0.70;99.90
10692;DHT22;5396;50.950;6.988;2022-12-10T05:44:50;-0.60;99.90
10692;DHT22;5396;50.950;6.988;2022-12-10T05:47:15;-0.60;99.90
10692;DHT22;5396;50.950;6.988;2022-12-10T05:49:41;-0.60;99.90
10692;DHT22;5396;50.950;6.988;2022-12-10T05:52:07;-0.50;99.90
10692;DHT22;5396;50.950;6.988;2022-12-10T05:54:34;-0.50;99.90
10692;DHT22;5396;50.950;6.988;2022-12-10T05:57:00;-0.50;99.90
10692;DHT22;5396;50.950;6.988;2022-12-10T05:59:25;-0.50;99.90
10692;DHT22;5396;50.950;6.988;2022-12-10T06:01:51;-0.50;99.90
10692;DHT22;5396;50.950;6.988;2022-12-10T06:04:16;-0.50;99.90
10692;DHT22;5396;50.950;6.988;2022-12-10T06:06:42;-0.50;99.90
10692;DHT22;5396;50.950;6.988;2022-12-10T06:09:11;-0.60;99.90
10692;DHT22;5396;50.950;6.988;2022-12-10T06:11:37;-0.50;99.90
10692;DHT22;5396;50.950;6.988;2022-12-10T06:14:02;-0.50;99.90
10692;DHT22;5396;50.950;6.988;2022-12-10T06:16:29;-0.50;99.90
10692;DHT22;5396;50.950;6.988;2022-12-10T06:18:55;-0.50;99.90
10692;DHT22;5396;50.950;6.988;2022-12-10T06:21:21;-0.50;99.90
10692;DHT22;5396;50.950;6.988;2022-12-10T06:23:48;-0.50;99.90
10692;DHT22;5396;50.950;6.988;2022-12-10T06:26:16;-0.50;99.90
10692;DHT22;5396;50.950;6.988;2022-12-10T06:28:47;-0.50;99.90
10692;DHT22;5396;50.950;6.988;2022-12-10T06:31:13;-0.50;99.90
10692;DHT22;5396;50.950;6.988;2022-12-10T06:33:39;-0.50;99.90
10692;DHT22;5396;50.950;6.988;2022-12-10T06:36:06;-0.40;99.90
10692;DHT22;5396;50.950;6.988;2022-12-10T06:38:33;-0.40;99.90
10692;DHT22;5396;50.950;6.988;2022-12-10T06:40:59;-0.40;99.90
10692;DHT22;5396;50.950;6.988;2022-12-10T06:43:27;-0.40;99.90
10692;DHT22;5396;50.950;6.988;2022-12-10T06:45:53;-0.40;99.90
10692;DHT22;5396;50.950;6.988;2022-12-10T06:48:18;-0.40;99.90
10692;DHT22;5396;50.950;6.988;2022-12-10T06:50:44;-0.40;99.90
10692;DHT22;5396;50.950;6.988;2022-12-10T06:53:10;-0.40;99.90
10692;DHT22;5396;50.950;6.988;2022-12-10T06:55:37;-0.40;99.90
10692;DHT22;5396;50.950;6.988;2022-12-10T06:58:03;-0.40;99.90
10692;DHT22;5396;50.950;6.988;2022-12-10T07:00:29;-0.30;99.90
10692;DHT22;5396;50.950;6.988;2022-12-10T07:02:54;-0.30;99.90
10692;DHT22;5396;50.950;6.988;2022-12-10T07:05:20;-0.30;99.90
10692;DHT22;5396;50.950;6.988;2022-12-10T07:07:46;-0.30;99.90
10692;DHT22;5396;50.950;6.988;2022-12-10T07:10:12;-0.20;99.90
10692;DHT22;5396;50.950;6.988;2022-12-10T07:12:38;-0.20;99.90
10692;DHT22;5396;50.950;6.988;2022-12-10T07:15:04;-0.20;99.90
10692;DHT22;5396;50.950;6.988;2022-12-10T07:17:29;-0.30;99.90
10692;DHT22;5396;50.950;6.988;2022-12-10T07:19:55;-0.20;99.90
10692;DHT22;5396;50.950;6.988;2022-12-10T07:22:21;-0.30;99.90
10692;DHT22;5396;50.950;6.988;2022-12-10T07:24:48;-0.30;99.90
10692;DHT22;5396;50.950;6.988;2022-12-10T07:27:14;-0.30;99.90
10692;DHT22;5396;50.950;6.988;2022-12-10T07:29:39;-0.30;99.90
10692;DHT22;5396;50.950;6.988;2022-12-10T07:32:05;-0.20;99.90
10692;DHT22;5396;50.950;6.988;2022-12-10T07:34:30;-0.20;99.90
10692;DHT22;5396;50.950;6.988;2022-12-10T07:36:56;-0.20;99.90
10692;DHT22;5396;50.950;6.988;2022-12-10T07:39:22;-0.20;99.90
10692;DHT22;5396;50.950;6.988;2022-12-10T07:41:51;-0.20;99.90
10692;DHT22;5396;50.950;6.988;2022-12-10T07:44:19;-0.20;99.90
10692;DHT22;5396;50.950;6.988;2022-12-10T07:46:47;-0.20;99.90
10692;DHT22;5396;50.950;6.988;2022-12-10T07:49:13;-0.10;99.90
10692;DHT22;5396;50.950;6.988;2022-12-10T07:51:39;-0.20;99.90
10692;DHT22;5396;50.950;6.988;2022-12-10T07:54:05;-0.20;99.90
10692;DHT22;5396;50.950;6.988;2022-12-10T07:56:30;-0.20;99.90
10692;DHT22;5396;50.950;6.988;2022-12-10T07:58:56;-0.20;99.90
10692;DHT22;5396;50.950;6.988;2022-12-10T08:01:24;-0.30;99.90
10692;DHT22;5396;50.950;6.988;2022-12-10T08:03:52;-0.30;99.90
10692;DHT22;5396;50.950;6.988;2022-12-10T08:06:20;-0.30;99.90
10692;DHT22;5396;50.950;6.988;2022-12-10T08:08:47;-0.30;99.90
10692;DHT22;5396;50.950;6.988;2022-12-10T08:11:14;-0.30;99.90
10692;DHT22;5396;50.950;6.988;2022-12-10T08:13:40;-0.30;99.90
10692;DHT22;5396;50.950;6.988;2022-12-10T08:16:10;-0.10;99.90
10692;DHT22;5396;50.950;6.988;2022-12-10T08:18:36;0.00;99.90
10692;DHT22;5396;50.950;6.988;2022-12-10T08:21:06;0.00;99.90
10692;DHT22;5396;50.950;6.988;2022-12-10T08:23:33;0.10;99.90
10692;DHT22;5396;50.950;6.988;2022-12-10T08:26:03;0.10;99.90
10692;DHT22;5396;50.950;6.988;2022-12-10T08:28:28;0.10;99.90
10692;DHT22;5396;50.950;6.988;2022-12-10T08:30:54;0.10;99.90
10692;DHT22;5396;50.950;6.988;2022-12-10T08:33:20;0.10;99.90
10692;DHT22;5396;50.950;6.988;2022-12-10T08:35:45;0.10;99.90
10692;DHT22;5396;50.950;6.988;2022-12-10T08:38:11;0.10;99.90
10692;DHT22;5396;50.950;6.988;2022-12-10T08:40:39;0.10;99.90
10692;DHT22;5396;50.950;6.988;2022-12-10T08:43:05;0.20;99.90
10692;DHT22;5396;50.950;6.988;2022-12-10T08:45:31;0.30;99.90
10692;DHT22;5396;50.950;6.988;2022-12-10T08:47:57;0.30;99.90
10692;DHT22;5396;50.950;6.988;2022-12-10T08:50:22;0.40;99.90
10692;DHT22;5396;50.950;6.988;2022-12-10T08:52:48;0.40;99.90
10692;DHT22;5396;50.950;6.988;2022-12-10T08:55:13;0.50;99.90
10692;DHT22;5396;50.950;6.988;2022-12-10T08:57:39;0.50;99.90
10692;DHT22;5396;50.950;6.988;2022-12-10T09:00:05;0.50;99.90
10692;DHT22;5396;50.950;6.988;2022-12-10T09:02:32;0.50;99.90
10692;DHT22;5396;50.950;6.988;2022-12-10T09:04:58;0.60;99.90
10692;DHT22;5396;50.950;6.988;2022-12-10T09:07:23;0.60;99.90
10692;DHT22;5396;50.950;6.988;2022-12-10T09:09:49;0.70;99.90
10692;DHT22;5396;50.950;6.988;2022-12-10T09:12:14;0.70;99.90
10692;DHT22;5396;50.950;6.988;2022-12-10T09:14:40;0.80;99.90
10692;DHT22;5396;50.950;6.988;2022-12-10T09:17:07;0.90;99.90
10692;DHT22;5396;50.950;6.988;2022-12-10T09:19:33;0.90;99.90
10692;DHT22;5396;50.950;6.988;2022-12-10T09:21:59;0.90;99.90
10692;DHT22;5396;50.950;6.988;2022-12-10T09:24:24;0.90;99.90
10692;DHT22;5396;50.950;6.988;2022-12-10T09:26:50;0.90;99.90
10692;DHT22;5396;50.950;6.988;2022-12-10T09:29:16;0.90;99.90
10692;DHT22;5396;50.950;6.988;2022-12-10T09:31:41;1.00;99.90
10692;DHT22;5396;50.950;6.988;2022-12-10T09:34:08;1.00;99.90
10692;DHT22;5396;50.950;6.988;2022-12-10T09:36:33;1.00;99.90
10692;DHT22;5396;50.950;6.988;2022-12-10T09:38:59;1.00;99.90
10692;DHT22;5396;50.950;6.988;2022-12-10T09:41:47;1.00;99.90
10692;DHT22;5396;50.950;6.988;2022-12-10T09:44:38;0.90;99.90
10692;DHT22;5396;50.950;6.988;2022-12-10T09:47:09;1.00;99.90
10692;DHT22;5396;50.950;6.988;2022-12-10T09:52:06;1.00;99.90
10692;DHT22;5396;50.950;6.988;2022-12-10T09:54:41;1.10;99.90
10692;DHT22;5396;50.950;6.988;2022-12-10T09:57:20;1.10;99.90
10692;DHT22;5396;50.950;6.988;2022-12-10T09:59:51;1.10;99.90
10692;DHT22;5396;50.950;6.988;2022-12-10T10:02:27;1.10;99.90
10692;DHT22;5396;50.950;6.988;2022-12-10T10:05:00;1.20;99.90
10692;DHT22;5396;50.950;6.988;2022-12-10T10:07:29;1.10;99.90
10692;DHT22;5396;50.950;6.988;2022-12-10T10:10:02;1.10;99.90
10692;DHT22;5396;50.950;6.988;2022-12-10T10:12:31;1.10;99.90
10692;DHT22;5396;50.950;6.988;2022-12-10T10:14:57;1.10;99.90
10692;DHT22;5396;50.950;6.988;2022-12-10T10:17:33;1.00;99.90
10692;DHT22;5396;50.950;6.988;2022-12-10T10:20:00;1.00;99.90
10692;DHT22;5396;50.950;6.988;2022-12-10T10:22:26;0.80;99.90
10692;DHT22;5396;50.950;6.988;2022-12-10T10:24:52;0.70;99.90
10692;DHT22;5396;50.950;6.988;2022-12-10T10:27:22;0.60;99.90
10692;DHT22;5396;50.950;6.988;2022-12-10T10:29:51;0.50;99.90
10692;DHT22;5396;50.950;6.988;2022-12-10T10:32:21;0.60;99.90
10692;DHT22;5396;50.950;6.988;2022-12-10T10:34:53;0.60;99.90
10692;DHT22;5396;50.950;6.988;2022-12-10T10:37:28;0.70;99.90
10692;DHT22;5396;50.950;6.988;2022-12-10T10:39:54;0.80;99.90
10692;DHT22;5396;50.950;6.988;2022-12-10T10:42:27;0.80;99.90
10692;DHT22;5396;50.950;6.988;2022-12-10T10:44:54;0.90;99.90
10692;DHT22;5396;50.950;6.988;2022-12-10T10:47:31;0.90;99.90
10692;DHT22;5396;50.950;6.988;2022-12-10T10:49:58;0.70;99.90
10692;DHT22;5396;50.950;6.988;2022-12-10T10:52:28;0.70;99.90
10692;DHT22;5396;50.950;6.988;2022-12-10T10:54:54;0.70;99.90
10692;DHT22;5396;50.950;6.988;2022-12-10T10:57:32;0.70;99.90
10692;DHT22;5396;50.950;6.988;2022-12-10T11:02:40;0.80;99.90
10692;DHT22;5396;50.950;6.988;2022-12-10T11:05:20;0.80;99.90
10692;DHT22;5396;50.950;6.988;2022-12-10T11:07:47;0.80;99.90
10692;DHT22;5396;50.950;6.988;2022-12-10T11:10:24;0.90;99.90
10692;DHT22;5396;50.950;6.988;2022-12-10T11:17:54;1.30;99.90
10692;DHT22;5396;50.950;6.988;2022-12-10T11:20:24;1.40;99.90
10692;DHT22;5396;50.950;6.988;2022-12-10T11:22:55;1.50;99.90
10692;DHT22;5396;50.950;6.988;2022-12-10T11:25:45;1.60;99.90
10692;DHT22;5396;50.950;6.988;2022-12-10T11:31:49;1.70;99.90
10692;DHT22;5396;50.950;6.988;2022-12-10T11:37:18;1.80;99.90
10692;DHT22;5396;50.950;6.988;2022-12-10T11:42:44;1.80;99.90
10692;DHT22;5396;50.950;6.988;2022-12-10T11:53:36;1.70;99.90
10692;DHT22;5396;50.950;6.988;2022-12-10T11:58:57;1.80;99.90
10692;DHT22;5396;50.950;6.988;2022-12-10T12:04:23;1.60;99.90
10692;DHT22;5396;50.950;6.988;2022-12-10T12:07:27;1.40;99.90
10692;DHT22;5396;50.950;6.988;2022-12-10T12:18:18;1.00;99.90
10692;DHT22;5396;50.950;6.988;2022-12-10T12:20:49;0.90;99.90
10692;DHT22;5396;50.950;6.988;2022-12-10T12:26:04;1.00;99.90
10692;DHT22;5396;50.950;6.988;2022-12-10T12:28:46;1.10;99.90
10692;DHT22;5396;50.950;6.988;2022-12-10T12:31:29;1.30;99.90
10692;DHT22;5396;50.950;6.988;2022-12-10T12:34:03;1.40;99.90
10692;DHT22;5396;50.950;6.988;2022-12-10T12:36:33;1.50;99.90
10692;DHT22;5396;50.950;6.988;2022-12-10T12:39:05;1.60;99.90
10692;DHT22;5396;50.950;6.988;2022-12-10T12:50:10;1.70;99.90
10692;DHT22;5396;50.950;6.988;2022-12-10T12:52:49;1.70;99.90
10692;DHT22;5396;50.950;6.988;2022-12-10T12:55:21;1.70;99.90
10692;DHT22;5396;50.950;6.988;2022-12-10T12:57:54;1.70;99.90
10692;DHT22;5396;50.950;6.988;2022-12-10T13:00:22;1.70;99.90
10692;DHT22;5396;50.950;6.988;2022-12-10T13:05:52;1.70;99.90
10692;DHT22;5396;50.950;6.988;2022-12-10T13:10:45;1.90;99.90
10692;DHT22;5396;50.950;6.988;2022-12-10T13:13:31;2.00;99.90
10692;DHT22;5396;50.950;6.988;2022-12-10T13:24:45;2.20;99.90
10692;DHT22;5396;50.950;6.988;2022-12-10T13:29:46;2.10;99.90
10692;DHT22;5396;50.950;6.988;2022-12-10T13:35:26;2.10;99.90
10692;DHT22;5396;50.950;6.988;2022-12-10T13:37:56;2.10;99.90
10692;DHT22;5396;50.950;6.988;2022-12-10T13:40:38;2.10;99.90
10692;DHT22;5396;50.950;6.988;2022-12-10T13:43:39;2.10;99.90
10692;DHT22;5396;50.950;6.988;2022-12-10T13:46:30;2.00;99.90
10692;DHT22;5396;50.950;6.988;2022-12-10T13:48:58;1.90;99.90
10692;DHT22;5396;50.950;6.988;2022-12-10T13:54:13;2.00;99.90
10692;DHT22;5396;50.950;6.988;2022-12-10T14:05:48;1.70;99.90
10692;DHT22;5396;50.950;6.988;2022-12-10T14:08:19;1.60;99.90
10692;DHT22;5396;50.950;6.988;2022-12-10T14:10:47;1.60;99.90
10692;DHT22;5396;50.950;6.988;2022-12-10T14:13:15;1.60;99.90
10692;DHT22;5396;50.950;6.988;2022-12-10T14:15:51;1.50;99.90
10692;DHT22;5396;50.950;6.988;2022-12-10T14:18:18;1.60;99.90
10692;DHT22;5396;50.950;6.988;2022-12-10T14:20:46;1.70;99.90
10692;DHT22;5396;50.950;6.988;2022-12-10T14:23:30;1.70;99.90
10692;DHT22;5396;50.950;6.988;2022-12-10T14:26:19;1.70;99.90
10692;DHT22;5396;50.950;6.988;2022-12-10T14:29:17;1.70;99.90
10692;DHT22;5396;50.950;6.988;2022-12-10T14:31:47;1.70;99.90
10692;DHT22;5396;50.950;6.988;2022-12-10T14:34:21;1.80;99.90
10692;DHT22;5396;50.950;6.988;2022-12-10T14:36:51;1.70;99.90
10692;DHT22;5396;50.950;6.988;2022-12-10T14:39:29;1.70;99.90
10692;DHT22;5396;50.950;6.988;2022-12-10T14:42:01;1.70;99.90
10692;DHT22;5396;50.950;6.988;2022-12-10T14:44:27;1.70;99.90
10692;DHT22;5396;50.950;6.988;2022-12-10T14:47:24;1.70;99.90
10692;DHT22;5396;50.950;6.988;2022-12-10T14:49:52;1.70;99.90
10692;DHT22;5396;50.950;6.988;2022-12-10T14:52:21;1.70;99.90
10692;DHT22;5396;50.950;6.988;2022-12-10T14:54:48;1.70;99.90
10692;DHT22;5396;50.950;6.988;2022-12-10T14:57:19;1.70;99.90
10692;DHT22;5396;50.950;6.988;2022-12-10T15:00:09;1.70;99.90
10692;DHT22;5396;50.950;6.988;2022-12-10T15:02:41;1.70;99.90
10692;DHT22;5396;50.950;6.988;2022-12-10T15:05:28;1.60;99.90
10692;DHT22;5396;50.950;6.988;2022-12-10T15:07:59;1.60;99.90
10692;DHT22;5396;50.950;6.988;2022-12-10T15:10:38;1.50;99.90
10692;DHT22;5396;50.950;6.988;2022-12-10T15:13:05;1.50;99.90
10692;DHT22;5396;50.950;6.988;2022-12-10T15:15:37;1.50;99.90
10692;DHT22;5396;50.950;6.988;2022-12-10T15:23:19;1.50;99.90
10692;DHT22;5396;50.950;6.988;2022-12-10T15:26:00;1.50;99.90
10692;DHT22;5396;50.950;6.988;2022-12-10T15:28:29;1.40;99.90
10692;DHT22;5396;50.950;6.988;2022-12-10T15:30:57;1.40;99.90
10692;DHT22;5396;50.950;6.988;2022-12-10T15:33:29;1.50;99.90
10692;DHT22;5396;50.950;6.988;2022-12-10T15:35:58;1.40;99.90
10692;DHT22;5396;50.950;6.988;2022-12-10T15:38:24;1.40;99.90
10692;DHT22;5396;50.950;6.988;2022-12-10T15:40:51;1.40;99.90
10692;DHT22;5396;50.950;6.988;2022-12-10T15:43:29;1.40;99.90
10692;DHT22;5396;50.950;6.988;2022-12-10T15:45:58;1.40;99.90
10692;DHT22;5396;50.950;6.988;2022-12-10T15:48:28;1.30;99.90
10692;DHT22;5396;50.950;6.988;2022-12-10T15:50:54;1.30;99.90
10692;DHT22;5396;50.950;6.988;2022-12-10T15:53:26;1.30;99.90
10692;DHT22;5396;50.950;6.988;2022-12-10T15:55:52;1.30;99.90
10692;DHT22;5396;50.950;6.988;2022-12-10T15:58:19;1.30;99.90
10692;DHT22;5396;50.950;6.988;2022-12-10T16:00:45;1.30;99.90
10692;DHT22;5396;50.950;6.988;2022-12-10T16:03:15;1.30;99.90
10692;DHT22;5396;50.950;6.988;2022-12-10T16:05:41;1.30;99.90
10692;DHT22;5396;50.950;6.988;2022-12-10T16:08:22;1.30;99.90
10692;DHT22;5396;50.950;6.988;2022-12-10T16:10:50;1.30;99.90
10692;DHT22;5396;50.950;6.988;2022-12-10T16:13:32;1.30;99.90
10692;DHT22;5396;50.950;6.988;2022-12-10T16:16:09;1.30;99.90
10692;DHT22;5396;50.950;6.988;2022-12-10T16:18:36;1.30;99.90
10692;DHT22;5396;50.950;6.988;2022-12-10T16:21:03;1.30;99.90
10692;DHT22;5396;50.950;6.988;2022-12-10T16:23:30;1.30;99.90
10692;DHT22;5396;50.950;6.988;2022-12-10T16:25:56;1.30;99.90
10692;DHT22;5396;50.950;6.988;2022-12-10T16:28:22;1.30;99.90
10692;DHT22;5396;50.950;6.988;2022-12-10T16:30:50;1.30;99.90
10692;DHT22;5396;50.950;6.988;2022-12-10T16:33:18;1.30;99.90
10692;DHT22;5396;50.950;6.988;2022-12-10T16:35:45;1.40;99.90
10692;DHT22;5396;50.950;6.988;2022-12-10T16:38:11;1.30;99.90
10692;DHT22;5396;50.950;6.988;2022-12-10T16:40:38;1.40;99.90
10692;DHT22;5396;50.950;6.988;2022-12-10T16:43:05;1.40;99.90
10692;DHT22;5396;50.950;6.988;2022-12-10T16:45:36;1.40;99.90
10692;DHT22;5396;50.950;6.988;2022-12-10T16:48:02;1.30;99.90
10692;DHT22;5396;50.950;6.988;2022-12-10T16:50:28;1.30;99.90
10692;DHT22;5396;50.950;6.988;2022-12-10T16:52:55;1.30;99.90
10692;DHT22;5396;50.950;6.988;2022-12-10T16:55:25;1.40;99.90
10692;DHT22;5396;50.950;6.988;2022-12-10T16:57:52;1.30;99.90
10692;DHT22;5396;50.950;6.988;2022-12-10T17:00:21;1.30;99.90
10692;DHT22;5396;50.950;6.988;2022-12-10T17:02:48;1.30;99.90
10692;DHT22;5396;50.950;6.988;2022-12-10T17:05:28;1.30;99.90
10692;DHT22;5396;50.950;6.988;2022-12-10T17:07:55;1.30;99.90
10692;DHT22;5396;50.950;6.988;2022-12-10T17:10:21;1.30;99.90
10692;DHT22;5396;50.950;6.988;2022-12-10T17:13:09;1.30;99.90
10692;DHT22;5396;50.950;6.988;2022-12-10T17:15:35;1.30;99.90
10692;DHT22;5396;50.950;6.988;2022-12-10T17:18:01;1.30;99.90
10692;DHT22;5396;50.950;6.988;2022-12-10T17:20:27;1.30;99.90
10692;DHT22;5396;50.950;6.988;2022-12-10T17:22:54;1.20;99.90
10692;DHT22;5396;50.950;6.988;2022-12-10T17:25:20;1.20;99.90
10692;DHT22;5396;50.950;6.988;2022-12-10T17:27:46;1.20;99.90
10692;DHT22;5396;50.950;6.988;2022-12-10T17:30:13;1.20;99.90
10692;DHT22;5396;50.950;6.988;2022-12-10T17:32:40;1.20;99.90
10692;DHT22;5396;50.950;6.988;2022-12-10T17:35:06;1.20;99.90
10692;DHT22;5396;50.950;6.988;2022-12-10T17:37:36;1.20;99.90
10692;DHT22;5396;50.950;6.988;2022-12-10T17:40:13;1.20;99.90
10692;DHT22;5396;50.950;6.988;2022-12-10T17:42:40;1.20;99.90
10692;DHT22;5396;50.950;6.988;2022-12-10T17:45:06;1.20;99.90
10692;DHT22;5396;50.950;6.988;2022-12-10T17:47:32;1.20;99.90
10692;DHT22;5396;50.950;6.988;2022-12-10T17:49:58;1.20;99.90
10692;DHT22;5396;50.950;6.988;2022-12-10T17:52:23;1.10;99.90
10692;DHT22;5396;50.950;6.988;2022-12-10T17:54:49;1.10;99.90
10692;DHT22;5396;50.950;6.988;2022-12-10T17:57:21;1.10;99.90
10692;DHT22;5396;50.950;6.988;2022-12-10T17:59:47;1.10;99.90